sensor_id;sensor_type;location;lat;lon;timestamp;P1;durP1;ratioP1;P2;durP2;ratioP2
29380;SDS011;16364;52.490;13.326;2023-05-16T00:00:48;8.83;;;8.07;;
29380;SDS011;16364;52.490;13.326;2023-05-16T00:03:14;9.10;;;8.20;;
29380;SDS011;16364;52.490;13.326;2023-05-16T00:05:39;9.17;;;8.23;;
29380;SDS011;16364;52.490;13.326;2023-05-16T00:08:04;9.17;;;8.20;;
29380;SDS011;16364;52.490;13.326;2023-05-16T00:10:30;10.70;;;9.13;;
29380;SDS011;16364;52.490;13.326;2023-05-16T00:12:55;9.00;;;8.30;;
29380;SDS011;16364;52.490;13.326;2023-05-16T00:15:21;10.57;;;9.50;;
29380;SDS011;16364;52.490;13.326;2023-05-16T00:17:47;9.57;;;8.73;;
29380;SDS011;16364;52.490;13.326;2023-05-16T00:20:13;12.60;;;9.13;;
29380;SDS011;16364;52.490;13.326;2023-05-16T00:22:41;9.23;;;8.43;;
29380;SDS011;16364;52.490;13.326;2023-05-16T00:25:07;11.00;;;9.63;;
29380;SDS011;16364;52.490;13.326;2023-05-16T00:27:35;10.60;;;9.53;;
29380;SDS011;16364;52.490;13.326;2023-05-16T00:30:01;12.93;;;10.30;;
29380;SDS011;16364;52.490;13.326;2023-05-16T00:32:26;10.67;;;9.67;;
29380;SDS011;16364;52.490;13.326;2023-05-16T00:34:51;11.70;;;10.53;;
29380;SDS011;16364;52.490;13.326;2023-05-16T00:37:17;12.27;;;10.00;;
29380;SDS011;16364;52.490;13.326;2023-05-16T00:39:42;14.27;;;11.87;;
29380;SDS011;16364;52.490;13.326;2023-05-16T00:42:07;11.80;;;10.87;;
29380;SDS011;16364;52.490;13.326;2023-05-16T00:44:32;12.10;;;10.90;;
29380;SDS011;16364;52.490;13.326;2023-05-16T00:46:58;12.93;;;11.20;;
29380;SDS011;16364;52.490;13.326;2023-05-16T00:49:24;14.03;;;12.73;;
29380;SDS011;16364;52.490;13.326;2023-05-16T00:51:49;14.50;;;11.80;;
29380;SDS011;16364;52.490;13.326;2023-05-16T00:54:15;16.27;;;12.50;;
29380;SDS011;16364;52.490;13.326;2023-05-16T00:56:41;14.97;;;13.40;;
29380;SDS011;16364;52.490;13.326;2023-05-16T00:59:06;18.70;;;14.37;;
29380;SDS011;16364;52.490;13.326;2023-05-16T01:01:31;17.27;;;14.37;;
29380;SDS011;16364;52.490;13.326;2023-05-16T01:03:57;15.67;;;12.77;;
29380;SDS011;16364;52.490;13.326;2023-05-16T01:06:24;19.50;;;14.57;;
29380;SDS011;16364;52.490;13.326;2023-05-16T01:08:49;16.90;;;15.00;;
29380;SDS011;16364;52.490;13.326;2023-05-16T01:11:19;17.57;;;15.73;;
29380;SDS011;16364;52.490;13.326;2023-05-16T01:16:37;17.30;;;13.47;;
29380;SDS011;16364;52.490;13.326;2023-05-16T01:19:12;16.30;;;14.03;;
29380;SDS011;16364;52.490;13.326;2023-05-16T01:21:45;16.50;;;14.80;;
29380;SDS011;16364;52.490;13.326;2023-05-16T01:24:25;18.60;;;14.57;;
29380;SDS011;16364;52.490;13.326;2023-05-16T01:26:53;16.00;;;14.27;;
29380;SDS011;16364;52.490;13.326;2023-05-16T01:29:20;16.20;;;13.83;;
29380;SDS011;16364;52.490;13.326;2023-05-16T01:31:45;19.47;;;14.33;;
29380;SDS011;16364;52.490;13.326;2023-05-16T01:34:11;17.70;;;14.20;;
29380;SDS011;16364;52.490;13.326;2023-05-16T01:36:54;17.07;;;15.13;;
29380;SDS011;16364;52.490;13.326;2023-05-16T01:42:23;19.03;;;13.83;;
29380;SDS011;16364;52.490;13.326;2023-05-16T01:44:55;16.53;;;14.70;;
29380;SDS011;16364;52.490;13.326;2023-05-16T01:47:22;22.90;;;13.90;;
29380;SDS011;16364;52.490;13.326;2023-05-16T01:52:27;15.77;;;12.80;;
29380;SDS011;16364;52.490;13.326;2023-05-16T01:54:53;14.73;;;12.57;;
29380;SDS011;16364;52.490;13.326;2023-05-16T01:57:21;15.57;;;13.90;;
29380;SDS011;16364;52.490;13.326;2023-05-16T01:59:48;14.93;;;13.23;;
29380;SDS011;16364;52.490;13.326;2023-05-16T02:02:16;14.57;;;11.97;;
29380;SDS011;16364;52.490;13.326;2023-05-16T02:04:41;18.80;;;14.90;;
29380;SDS011;16364;52.490;13.326;2023-05-16T02:07:06;15.40;;;12.80;;
29380;SDS011;16364;52.490;13.326;2023-05-16T02:09:32;17.63;;;12.53;;
29380;SDS011;16364;52.490;13.326;2023-05-16T02:11:57;15.63;;;13.20;;
29380;SDS011;16364;52.490;13.326;2023-05-16T02:14:24;16.00;;;12.17;;
29380;SDS011;16364;52.490;13.326;2023-05-16T02:16:49;20.83;;;14.20;;
29380;SDS011;16364;52.490;13.326;2023-05-16T02:19:15;17.37;;;13.70;;
29380;SDS011;16364;52.490;13.326;2023-05-16T02:21:40;17.87;;;13.57;;
29380;SDS011;16364;52.490;13.326;2023-05-16T02:24:05;16.87;;;12.77;;
29380;SDS011;16364;52.490;13.326;2023-05-16T02:26:30;16.70;;;12.60;;
29380;SDS011;16364;52.490;13.326;2023-05-16T02:28:56;18.00;;;12.87;;
29380;SDS011;16364;52.490;13.326;2023-05-16T02:31:25;13.40;;;12.10;;
29380;SDS011;16364;52.490;13.326;2023-05-16T02:33:50;16.30;;;13.90;;
29380;SDS011;16364;52.490;13.326;2023-05-16T02:36:15;17.37;;;12.63;;
29380;SDS011;16364;52.490;13.326;2023-05-16T02:38:40;18.07;;;14.30;;
29380;SDS011;16364;52.490;13.326;2023-05-16T02:41:06;15.27;;;13.60;;
29380;SDS011;16364;52.490;13.326;2023-05-16T02:43:31;18.33;;;13.67;;
29380;SDS011;16364;52.490;13.326;2023-05-16T02:45:56;16.23;;;14.50;;
29380;SDS011;16364;52.490;13.326;2023-05-16T02:48:21;21.00;;;15.33;;
29380;SDS011;16364;52.490;13.326;2023-05-16T02:50:47;19.73;;;14.27;;
29380;SDS011;16364;52.490;13.326;2023-05-16T02:53:12;18.70;;;13.97;;
29380;SDS011;16364;52.490;13.326;2023-05-16T02:55:37;19.20;;;14.67;;
29380;SDS011;16364;52.490;13.326;2023-05-16T02:58:03;19.10;;;15.07;;
29380;SDS011;16364;52.490;13.326;2023-05-16T03:00:28;19.10;;;14.57;;
29380;SDS011;16364;52.490;13.326;2023-05-16T03:02:54;18.37;;;14.50;;
29380;SDS011;16364;52.490;13.326;2023-05-16T03:05:19;20.43;;;15.77;;
29380;SDS011;16364;52.490;13.326;2023-05-16T03:07:44;19.77;;;15.20;;
29380;SDS011;16364;52.490;13.326;2023-05-16T03:10:10;20.30;;;16.30;;
29380;SDS011;16364;52.490;13.326;2023-05-16T03:12:35;19.10;;;14.13;;
29380;SDS011;16364;52.490;13.326;2023-05-16T03:15:01;21.67;;;15.33;;
29380;SDS011;16364;52.490;13.326;2023-05-16T03:17:26;17.80;;;14.50;;
29380;SDS011;16364;52.490;13.326;2023-05-16T03:19:51;17.77;;;14.10;;
29380;SDS011;16364;52.490;13.326;2023-05-16T03:22:16;19.10;;;16.80;;
29380;SDS011;16364;52.490;13.326;2023-05-16T03:24:43;21.83;;;15.00;;
29380;SDS011;16364;52.490;13.326;2023-05-16T03:27:08;19.40;;;16.00;;
29380;SDS011;16364;52.490;13.326;2023-05-16T03:29:34;19.10;;;15.07;;
29380;SDS011;16364;52.490;13.326;2023-05-16T03:31:59;19.00;;;15.30;;
29380;SDS011;16364;52.490;13.326;2023-05-16T03:34:24;20.07;;;16.93;;
29380;SDS011;16364;52.490;13.326;2023-05-16T03:36:50;18.60;;;15.73;;
29380;SDS011;16364;52.490;13.326;2023-05-16T03:39:15;22.43;;;14.80;;
29380;SDS011;16364;52.490;13.326;2023-05-16T03:41:40;20.53;;;17.00;;
29380;SDS011;16364;52.490;13.326;2023-05-16T03:44:06;20.87;;;15.90;;
29380;SDS011;16364;52.490;13.326;2023-05-16T03:46:31;23.90;;;16.13;;
29380;SDS011;16364;52.490;13.326;2023-05-16T03:48:56;20.57;;;16.67;;
29380;SDS011;16364;52.490;13.326;2023-05-16T03:51:21;24.07;;;18.33;;
29380;SDS011;16364;52.490;13.326;2023-05-16T03:53:47;23.20;;;16.80;;
29380;SDS011;16364;52.490;13.326;2023-05-16T03:56:12;22.63;;;16.37;;
29380;SDS011;16364;52.490;13.326;2023-05-16T03:58:37;26.43;;;17.53;;
29380;SDS011;16364;52.490;13.326;2023-05-16T04:01:03;18.83;;;16.30;;
29380;SDS011;16364;52.490;13.326;2023-05-16T04:03:28;27.40;;;16.57;;
29380;SDS011;16364;52.490;13.326;2023-05-16T04:05:54;20.60;;;17.17;;
29380;SDS011;16364;52.490;13.326;2023-05-16T04:08:20;21.30;;;16.67;;
29380;SDS011;16364;52.490;13.326;2023-05-16T04:10:45;23.93;;;17.60;;
29380;SDS011;16364;52.490;13.326;2023-05-16T04:13:10;18.70;;;15.63;;
29380;SDS011;16364;52.490;13.326;2023-05-16T04:15:36;18.30;;;15.37;;
29380;SDS011;16364;52.490;13.326;2023-05-16T04:18:01;22.50;;;15.73;;
29380;SDS011;16364;52.490;13.326;2023-05-16T04:20:26;23.07;;;16.33;;
29380;SDS011;16364;52.490;13.326;2023-05-16T04:22:52;22.00;;;15.40;;
29380;SDS011;16364;52.490;13.326;2023-05-16T04:25:17;20.73;;;15.47;;
29380;SDS011;16364;52.490;13.326;2023-05-16T04:27:42;23.60;;;17.30;;
29380;SDS011;16364;52.490;13.326;2023-05-16T04:30:08;24.73;;;17.00;;
29380;SDS011;16364;52.490;13.326;2023-05-16T04:32:35;16.93;;;14.37;;
29380;SDS011;16364;52.490;13.326;2023-05-16T04:35:01;23.47;;;17.47;;
29380;SDS011;16364;52.490;13.326;2023-05-16T04:37:26;22.00;;;16.10;;
29380;SDS011;16364;52.490;13.326;2023-05-16T04:39:51;19.67;;;15.17;;
29380;SDS011;16364;52.490;13.326;2023-05-16T04:42:18;21.20;;;15.60;;
29380;SDS011;16364;52.490;13.326;2023-05-16T04:44:43;20.90;;;16.50;;
29380;SDS011;16364;52.490;13.326;2023-05-16T04:47:08;25.40;;;16.23;;
29380;SDS011;16364;52.490;13.326;2023-05-16T04:49:34;23.53;;;15.70;;
29380;SDS011;16364;52.490;13.326;2023-05-16T04:51:59;23.03;;;15.97;;
29380;SDS011;16364;52.490;13.326;2023-05-16T04:54:24;21.70;;;16.60;;
29380;SDS011;16364;52.490;13.326;2023-05-16T04:56:50;19.77;;;15.70;;
29380;SDS011;16364;52.490;13.326;2023-05-16T04:59:15;18.50;;;14.40;;
29380;SDS011;16364;52.490;13.326;2023-05-16T05:01:41;25.50;;;15.17;;
29380;SDS011;16364;52.490;13.326;2023-05-16T05:04:06;22.90;;;15.97;;
29380;SDS011;16364;52.490;13.326;2023-05-16T05:06:31;29.53;;;17.03;;
29380;SDS011;16364;52.490;13.326;2023-05-16T05:08:56;23.70;;;14.97;;
29380;SDS011;16364;52.490;13.326;2023-05-16T05:11:21;24.20;;;16.07;;
29380;SDS011;16364;52.490;13.326;2023-05-16T05:13:47;25.10;;;16.10;;
29380;SDS011;16364;52.490;13.326;2023-05-16T05:16:12;20.33;;;15.83;;
29380;SDS011;16364;52.490;13.326;2023-05-16T05:18:37;22.90;;;16.23;;
29380;SDS011;16364;52.490;13.326;2023-05-16T05:21:02;22.50;;;17.70;;
29380;SDS011;16364;52.490;13.326;2023-05-16T05:23:28;23.47;;;16.20;;
29380;SDS011;16364;52.490;13.326;2023-05-16T05:25:54;21.30;;;16.30;;
29380;SDS011;16364;52.490;13.326;2023-05-16T05:28:19;19.13;;;16.13;;
29380;SDS011;16364;52.490;13.326;2023-05-16T05:30:44;21.47;;;15.83;;
29380;SDS011;16364;52.490;13.326;2023-05-16T05:33:12;20.03;;;15.90;;
29380;SDS011;16364;52.490;13.326;2023-05-16T05:35:38;22.23;;;16.43;;
29380;SDS011;16364;52.490;13.326;2023-05-16T05:38:03;25.37;;;16.60;;
29380;SDS011;16364;52.490;13.326;2023-05-16T05:40:28;16.70;;;13.57;;
29380;SDS011;16364;52.490;13.326;2023-05-16T05:42:53;24.80;;;15.33;;
29380;SDS011;16364;52.490;13.326;2023-05-16T05:45:19;17.40;;;13.87;;
29380;SDS011;16364;52.490;13.326;2023-05-16T05:47:44;19.40;;;13.73;;
29380;SDS011;16364;52.490;13.326;2023-05-16T05:50:10;17.37;;;13.17;;
29380;SDS011;16364;52.490;13.326;2023-05-16T05:52:35;15.30;;;12.07;;
29380;SDS011;16364;52.490;13.326;2023-05-16T05:55:01;17.53;;;12.00;;
29380;SDS011;16364;52.490;13.326;2023-05-16T05:57:26;14.00;;;12.20;;
29380;SDS011;16364;52.490;13.326;2023-05-16T05:59:51;13.80;;;12.00;;
29380;SDS011;16364;52.490;13.326;2023-05-16T06:02:17;14.57;;;10.53;;
29380;SDS011;16364;52.490;13.326;2023-05-16T06:04:42;13.30;;;10.90;;
29380;SDS011;16364;52.490;13.326;2023-05-16T06:07:09;19.63;;;10.50;;
29380;SDS011;16364;52.490;13.326;2023-05-16T06:09:34;16.03;;;11.70;;
29380;SDS011;16364;52.490;13.326;2023-05-16T06:11:59;15.47;;;11.60;;
29380;SDS011;16364;52.490;13.326;2023-05-16T06:14:25;14.87;;;11.23;;
29380;SDS011;16364;52.490;13.326;2023-05-16T06:16:50;14.63;;;10.93;;
29380;SDS011;16364;52.490;13.326;2023-05-16T06:19:15;12.83;;;11.53;;
29380;SDS011;16364;52.490;13.326;2023-05-16T06:21:41;14.37;;;11.07;;
29380;SDS011;16364;52.490;13.326;2023-05-16T06:24:07;16.73;;;11.50;;
29380;SDS011;16364;52.490;13.326;2023-05-16T06:26:32;13.80;;;11.10;;
29380;SDS011;16364;52.490;13.326;2023-05-16T06:28:57;11.60;;;10.30;;
29380;SDS011;16364;52.490;13.326;2023-05-16T06:31:23;14.90;;;11.33;;
29380;SDS011;16364;52.490;13.326;2023-05-16T06:33:48;17.80;;;10.97;;
29380;SDS011;16364;52.490;13.326;2023-05-16T06:36:13;12.17;;;9.80;;
29380;SDS011;16364;52.490;13.326;2023-05-16T06:38:38;10.37;;;8.27;;
29380;SDS011;16364;52.490;13.326;2023-05-16T06:41:03;11.87;;;10.43;;
29380;SDS011;16364;52.490;13.326;2023-05-16T06:43:29;9.97;;;8.93;;
29380;SDS011;16364;52.490;13.326;2023-05-16T06:45:54;14.27;;;8.93;;
29380;SDS011;16364;52.490;13.326;2023-05-16T06:48:19;10.67;;;8.93;;
29380;SDS011;16364;52.490;13.326;2023-05-16T06:50:48;10.00;;;8.80;;
29380;SDS011;16364;52.490;13.326;2023-05-16T06:53:14;14.27;;;8.07;;
29380;SDS011;16364;52.490;13.326;2023-05-16T06:55:40;8.67;;;7.73;;
29380;SDS011;16364;52.490;13.326;2023-05-16T06:58:05;8.87;;;7.90;;
29380;SDS011;16364;52.490;13.326;2023-05-16T07:00:30;13.93;;;7.80;;
29380;SDS011;16364;52.490;13.326;2023-05-16T07:02:56;9.47;;;8.23;;
29380;SDS011;16364;52.490;13.326;2023-05-16T07:05:21;8.67;;;7.80;;
29380;SDS011;16364;52.490;13.326;2023-05-16T07:07:46;8.47;;;6.90;;
29380;SDS011;16364;52.490;13.326;2023-05-16T07:10:13;8.30;;;7.50;;
29380;SDS011;16364;52.490;13.326;2023-05-16T07:12:40;8.00;;;6.30;;
29380;SDS011;16364;52.490;13.326;2023-05-16T07:15:05;8.20;;;6.97;;
29380;SDS011;16364;52.490;13.326;2023-05-16T07:17:31;7.93;;;6.47;;
29380;SDS011;16364;52.490;13.326;2023-05-16T07:19:56;6.53;;;5.93;;
29380;SDS011;16364;52.490;13.326;2023-05-16T07:22:21;8.73;;;5.40;;
29380;SDS011;16364;52.490;13.326;2023-05-16T07:24:47;7.70;;;5.67;;
29380;SDS011;16364;52.490;13.326;2023-05-16T07:27:12;8.60;;;6.10;;
29380;SDS011;16364;52.490;13.326;2023-05-16T07:29:37;6.80;;;5.63;;
29380;SDS011;16364;52.490;13.326;2023-05-16T07:32:02;9.33;;;5.17;;
29380;SDS011;16364;52.490;13.326;2023-05-16T07:34:28;8.10;;;5.13;;
29380;SDS011;16364;52.490;13.326;2023-05-16T07:36:53;7.40;;;4.60;;
29380;SDS011;16364;52.490;13.326;2023-05-16T07:39:18;6.10;;;3.57;;
29380;SDS011;16364;52.490;13.326;2023-05-16T07:41:44;5.90;;;4.67;;
29380;SDS011;16364;52.490;13.326;2023-05-16T07:44:09;5.47;;;4.50;;
29380;SDS011;16364;52.490;13.326;2023-05-16T07:46:34;3.73;;;3.33;;
29380;SDS011;16364;52.490;13.326;2023-05-16T07:49:00;6.73;;;4.27;;
29380;SDS011;16364;52.490;13.326;2023-05-16T07:51:25;4.27;;;3.87;;
29380;SDS011;16364;52.490;13.326;2023-05-16T07:53:50;4.10;;;3.33;;
29380;SDS011;16364;52.490;13.326;2023-05-16T07:56:16;4.17;;;3.13;;
29380;SDS011;16364;52.490;13.326;2023-05-16T07:58:41;5.73;;;3.70;;
29380;SDS011;16364;52.490;13.326;2023-05-16T08:01:06;5.03;;;4.00;;
29380;SDS011;16364;52.490;13.326;2023-05-16T08:03:31;6.50;;;3.30;;
29380;SDS011;16364;52.490;13.326;2023-05-16T08:05:57;3.50;;;3.20;;
29380;SDS011;16364;52.490;13.326;2023-05-16T08:08:22;3.77;;;3.17;;
29380;SDS011;16364;52.490;13.326;2023-05-16T08:10:47;4.17;;;3.50;;
29380;SDS011;16364;52.490;13.326;2023-05-16T08:13:12;6.33;;;3.47;;
29380;SDS011;16364;52.490;13.326;2023-05-16T08:15:38;3.20;;;2.70;;
29380;SDS011;16364;52.490;13.326;2023-05-16T08:18:03;4.60;;;3.10;;
29380;SDS011;16364;52.490;13.326;2023-05-16T08:20:30;3.77;;;3.47;;
29380;SDS011;16364;52.490;13.326;2023-05-16T08:22:56;3.80;;;3.47;;
29380;SDS011;16364;52.490;13.326;2023-05-16T08:25:21;4.43;;;3.40;;
29380;SDS011;16364;52.490;13.326;2023-05-16T08:27:47;5.10;;;3.20;;
29380;SDS011;16364;52.490;13.326;2023-05-16T08:30:12;4.00;;;3.60;;
29380;SDS011;16364;52.490;13.326;2023-05-16T08:32:38;5.77;;;4.57;;
29380;SDS011;16364;52.490;13.326;2023-05-16T08:35:03;3.47;;;3.17;;
29380;SDS011;16364;52.490;13.326;2023-05-16T08:37:29;6.07;;;3.90;;
29380;SDS011;16364;52.490;13.326;2023-05-16T08:42:57;3.37;;;3.07;;
29380;SDS011;16364;52.490;13.326;2023-05-16T08:45:23;12.90;;;3.83;;
29380;SDS011;16364;52.490;13.326;2023-05-16T08:47:48;9.03;;;3.00;;
29380;SDS011;16364;52.490;13.326;2023-05-16T08:50:14;2.87;;;2.63;;
29380;SDS011;16364;52.490;13.326;2023-05-16T08:52:40;2.70;;;2.47;;
29380;SDS011;16364;52.490;13.326;2023-05-16T08:55:06;3.60;;;2.70;;
29380;SDS011;16364;52.490;13.326;2023-05-16T08:57:33;5.00;;;2.73;;
29380;SDS011;16364;52.490;13.326;2023-05-16T08:59:59;3.97;;;2.33;;
29380;SDS011;16364;52.490;13.326;2023-05-16T09:02:25;4.43;;;2.10;;
29380;SDS011;16364;52.490;13.326;2023-05-16T09:04:50;8.53;;;2.50;;
29380;SDS011;16364;52.490;13.326;2023-05-16T09:07:16;4.10;;;2.40;;
29380;SDS011;16364;52.490;13.326;2023-05-16T09:09:41;3.80;;;2.30;;
29380;SDS011;16364;52.490;13.326;2023-05-16T09:12:07;2.50;;;2.03;;
29380;SDS011;16364;52.490;13.326;2023-05-16T09:14:32;3.13;;;2.03;;
29380;SDS011;16364;52.490;13.326;2023-05-16T09:17:04;5.13;;;2.03;;
29380;SDS011;16364;52.490;13.326;2023-05-16T09:19:39;3.93;;;2.17;;
29380;SDS011;16364;52.490;13.326;2023-05-16T09:22:08;4.00;;;1.93;;
29380;SDS011;16364;52.490;13.326;2023-05-16T09:24:37;2.67;;;1.53;;
29380;SDS011;16364;52.490;13.326;2023-05-16T09:27:07;5.60;;;2.23;;
29380;SDS011;16364;52.490;13.326;2023-05-16T09:29:33;5.83;;;2.10;;
29380;SDS011;16364;52.490;13.326;2023-05-16T09:32:03;3.60;;;1.93;;
29380;SDS011;16364;52.490;13.326;2023-05-16T09:34:29;5.03;;;2.23;;
29380;SDS011;16364;52.490;13.326;2023-05-16T09:36:54;3.30;;;1.80;;
29380;SDS011;16364;52.490;13.326;2023-05-16T09:39:19;3.67;;;2.03;;
29380;SDS011;16364;52.490;13.326;2023-05-16T09:41:45;2.90;;;1.60;;
29380;SDS011;16364;52.490;13.326;2023-05-16T09:44:10;7.13;;;2.73;;
29380;SDS011;16364;52.490;13.326;2023-05-16T09:46:36;4.60;;;3.23;;
29380;SDS011;16364;52.490;13.326;2023-05-16T09:49:02;5.13;;;1.90;;
29380;SDS011;16364;52.490;13.326;2023-05-16T09:51:27;3.25;;;1.90;;
29380;SDS011;16364;52.490;13.326;2023-05-16T09:53:52;7.73;;;1.90;;
29380;SDS011;16364;52.490;13.326;2023-05-16T09:56:18;3.43;;;2.20;;
29380;SDS011;16364;52.490;13.326;2023-05-16T09:58:43;5.20;;;2.20;;
29380;SDS011;16364;52.490;13.326;2023-05-16T10:01:11;2.77;;;1.90;;
29380;SDS011;16364;52.490;13.326;2023-05-16T10:03:37;2.40;;;2.20;;
29380;SDS011;16364;52.490;13.326;2023-05-16T10:06:03;4.57;;;1.87;;
29380;SDS011;16364;52.490;13.326;2023-05-16T10:08:30;2.90;;;2.00;;
29380;SDS011;16364;52.490;13.326;2023-05-16T10:10:55;6.87;;;2.30;;
29380;SDS011;16364;52.490;13.326;2023-05-16T10:13:21;5.87;;;2.00;;
29380;SDS011;16364;52.490;13.326;2023-05-16T10:15:47;4.30;;;3.40;;
29380;SDS011;16364;52.490;13.326;2023-05-16T10:18:13;9.13;;;3.30;;
29380;SDS011;16364;52.490;13.326;2023-05-16T10:20:40;9.50;;;2.97;;
29380;SDS011;16364;52.490;13.326;2023-05-16T10:23:06;3.63;;;2.10;;
29380;SDS011;16364;52.490;13.326;2023-05-16T10:25:33;7.40;;;2.63;;
29380;SDS011;16364;52.490;13.326;2023-05-16T10:28:01;7.23;;;2.30;;
29380;SDS011;16364;52.490;13.326;2023-05-16T10:30:26;3.60;;;2.13;;
29380;SDS011;16364;52.490;13.326;2023-05-16T10:32:52;10.90;;;2.77;;
29380;SDS011;16364;52.490;13.326;2023-05-16T10:35:18;2.57;;;2.37;;
29380;SDS011;16364;52.490;13.326;2023-05-16T10:37:43;10.23;;;3.60;;
29380;SDS011;16364;52.490;13.326;2023-05-16T10:40:09;6.83;;;2.70;;
29380;SDS011;16364;52.490;13.326;2023-05-16T10:42:35;7.47;;;2.63;;
29380;SDS011;16364;52.490;13.326;2023-05-16T10:45:16;6.43;;;2.53;;
29380;SDS011;16364;52.490;13.326;2023-05-16T10:47:58;12.90;;;2.57;;
29380;SDS011;16364;52.490;13.326;2023-05-16T10:53:13;7.87;;;2.30;;
29380;SDS011;16364;52.490;13.326;2023-05-16T10:55:43;4.70;;;2.03;;
29380;SDS011;16364;52.490;13.326;2023-05-16T10:58:08;9.07;;;2.60;;
29380;SDS011;16364;52.490;13.326;2023-05-16T11:00:34;6.93;;;3.10;;
29380;SDS011;16364;52.490;13.326;2023-05-16T11:03:05;5.57;;;2.20;;
29380;SDS011;16364;52.490;13.326;2023-05-16T11:05:30;4.70;;;2.50;;
29380;SDS011;16364;52.490;13.326;2023-05-16T11:08:02;4.87;;;3.83;;
29380;SDS011;16364;52.490;13.326;2023-05-16T11:10:29;4.53;;;2.47;;
29380;SDS011;16364;52.490;13.326;2023-05-16T11:12:54;5.33;;;2.00;;
29380;SDS011;16364;52.490;13.326;2023-05-16T11:15:26;4.60;;;1.73;;
29380;SDS011;16364;52.490;13.326;2023-05-16T11:18:25;9.73;;;3.40;;
29380;SDS011;16364;52.490;13.326;2023-05-16T11:20:43;11.90;;;1.93;;
29380;SDS011;16364;52.490;13.326;2023-05-16T11:25:41;5.83;;;1.87;;
29380;SDS011;16364;52.490;13.326;2023-05-16T11:28:07;8.90;;;2.20;;
29380;SDS011;16364;52.490;13.326;2023-05-16T11:30:32;4.73;;;1.90;;
29380;SDS011;16364;52.490;13.326;2023-05-16T11:32:58;6.97;;;2.30;;
29380;SDS011;16364;52.490;13.326;2023-05-16T11:35:23;11.60;;;2.30;;
29380;SDS011;16364;52.490;13.326;2023-05-16T11:37:48;9.33;;;2.00;;
29380;SDS011;16364;52.490;13.326;2023-05-16T11:40:14;5.77;;;2.20;;
29380;SDS011;16364;52.490;13.326;2023-05-16T11:42:44;5.37;;;1.90;;
29380;SDS011;16364;52.490;13.326;2023-05-16T11:45:10;4.43;;;4.03;;
29380;SDS011;16364;52.490;13.326;2023-05-16T11:47:36;6.27;;;2.30;;
29380;SDS011;16364;52.490;13.326;2023-05-16T11:50:03;4.17;;;1.90;;
29380;SDS011;16364;52.490;13.326;2023-05-16T11:52:29;7.27;;;2.43;;
29380;SDS011;16364;52.490;13.326;2023-05-16T11:54:55;5.50;;;1.80;;
29380;SDS011;16364;52.490;13.326;2023-05-16T11:57:23;5.03;;;2.23;;
29380;SDS011;16364;52.490;13.326;2023-05-16T11:59:48;2.20;;;1.90;;
29380;SDS011;16364;52.490;13.326;2023-05-16T12:02:14;2.90;;;1.93;;
29380;SDS011;16364;52.490;13.326;2023-05-16T12:04:39;4.00;;;1.87;;
29380;SDS011;16364;52.490;13.326;2023-05-16T12:07:04;7.60;;;1.80;;
29380;SDS011;16364;52.490;13.326;2023-05-16T12:09:29;4.57;;;2.50;;
29380;SDS011;16364;52.490;13.326;2023-05-16T12:11:55;4.17;;;1.90;;
29380;SDS011;16364;52.490;13.326;2023-05-16T12:14:20;5.00;;;2.07;;
29380;SDS011;16364;52.490;13.326;2023-05-16T12:16:46;5.03;;;1.70;;
29380;SDS011;16364;52.490;13.326;2023-05-16T12:19:13;5.93;;;1.77;;
29380;SDS011;16364;52.490;13.326;2023-05-16T12:21:38;2.87;;;1.73;;
29380;SDS011;16364;52.490;13.326;2023-05-16T12:24:03;2.80;;;1.60;;
29380;SDS011;16364;52.490;13.326;2023-05-16T12:26:30;25.63;;;12.80;;
29380;SDS011;16364;52.490;13.326;2023-05-16T12:28:59;15.93;;;3.70;;
29380;SDS011;16364;52.490;13.326;2023-05-16T12:31:27;6.87;;;1.57;;
29380;SDS011;16364;52.490;13.326;2023-05-16T12:33:52;3.97;;;1.80;;
29380;SDS011;16364;52.490;13.326;2023-05-16T12:36:21;5.30;;;1.97;;
29380;SDS011;16364;52.490;13.326;2023-05-16T12:38:46;6.53;;;2.57;;
29380;SDS011;16364;52.490;13.326;2023-05-16T12:41:21;6.73;;;2.00;;
29380;SDS011;16364;52.490;13.326;2023-05-16T12:43:47;3.70;;;1.67;;
29380;SDS011;16364;52.490;13.326;2023-05-16T12:46:12;5.30;;;2.60;;
29380;SDS011;16364;52.490;13.326;2023-05-16T12:48:38;3.90;;;2.70;;
29380;SDS011;16364;52.490;13.326;2023-05-16T12:51:15;5.23;;;1.70;;
29380;SDS011;16364;52.490;13.326;2023-05-16T12:53:42;5.70;;;2.00;;
29380;SDS011;16364;52.490;13.326;2023-05-16T12:56:08;8.30;;;1.87;;
29380;SDS011;16364;52.490;13.326;2023-05-16T12:58:33;7.23;;;3.00;;
29380;SDS011;16364;52.490;13.326;2023-05-16T13:00:58;6.00;;;2.80;;
29380;SDS011;16364;52.490;13.326;2023-05-16T13:03:24;5.50;;;2.13;;
29380;SDS011;16364;52.490;13.326;2023-05-16T13:05:49;8.30;;;2.50;;
29380;SDS011;16364;52.490;13.326;2023-05-16T13:08:15;6.10;;;2.17;;
29380;SDS011;16364;52.490;13.326;2023-05-16T13:10:40;6.53;;;1.80;;
29380;SDS011;16364;52.490;13.326;2023-05-16T13:13:05;7.57;;;1.70;;
29380;SDS011;16364;52.490;13.326;2023-05-16T13:15:31;2.77;;;1.80;;
29380;SDS011;16364;52.490;13.326;2023-05-16T13:17:56;5.53;;;1.57;;
29380;SDS011;16364;52.490;13.326;2023-05-16T13:20:21;10.70;;;1.33;;
29380;SDS011;16364;52.490;13.326;2023-05-16T13:22:46;1.57;;;1.40;;
29380;SDS011;16364;52.490;13.326;2023-05-16T13:25:12;3.50;;;2.17;;
29380;SDS011;16364;52.490;13.326;2023-05-16T13:27:37;5.63;;;1.60;;
29380;SDS011;16364;52.490;13.326;2023-05-16T13:30:02;3.57;;;1.90;;
29380;SDS011;16364;52.490;13.326;2023-05-16T13:32:31;3.83;;;1.43;;
29380;SDS011;16364;52.490;13.326;2023-05-16T13:34:56;2.90;;;1.30;;
29380;SDS011;16364;52.490;13.326;2023-05-16T13:37:22;5.83;;;1.70;;
29380;SDS011;16364;52.490;13.326;2023-05-16T13:39:50;3.70;;;1.47;;
29380;SDS011;16364;52.490;13.326;2023-05-16T13:42:15;7.00;;;1.60;;
29380;SDS011;16364;52.490;13.326;2023-05-16T13:44:40;5.70;;;1.50;;
29380;SDS011;16364;52.490;13.326;2023-05-16T13:47:06;5.80;;;1.47;;
29380;SDS011;16364;52.490;13.326;2023-05-16T13:49:32;7.80;;;1.87;;
29380;SDS011;16364;52.490;13.326;2023-05-16T13:51:57;3.40;;;1.53;;
29380;SDS011;16364;52.490;13.326;2023-05-16T13:54:22;3.30;;;1.50;;
29380;SDS011;16364;52.490;13.326;2023-05-16T13:56:48;1.80;;;1.23;;
29380;SDS011;16364;52.490;13.326;2023-05-16T13:59:13;8.13;;;2.10;;
29380;SDS011;16364;52.490;13.326;2023-05-16T14:01:38;3.30;;;1.50;;
29380;SDS011;16364;52.490;13.326;2023-05-16T14:04:03;3.30;;;1.33;;
29380;SDS011;16364;52.490;13.326;2023-05-16T14:06:29;3.10;;;1.20;;
29380;SDS011;16364;52.490;13.326;2023-05-16T14:08:55;2.40;;;1.20;;
29380;SDS011;16364;52.490;13.326;2023-05-16T14:11:20;1.90;;;1.23;;
29380;SDS011;16364;52.490;13.326;2023-05-16T14:13:50;1.90;;;1.13;;
29380;SDS011;16364;52.490;13.326;2023-05-16T14:16:16;2.90;;;1.20;;
29380;SDS011;16364;52.490;13.326;2023-05-16T14:18:41;3.60;;;1.30;;
29380;SDS011;16364;52.490;13.326;2023-05-16T14:21:07;2.83;;;1.73;;
29380;SDS011;16364;52.490;13.326;2023-05-16T14:23:32;4.37;;;1.20;;
29380;SDS011;16364;52.490;13.326;2023-05-16T14:25:57;3.33;;;1.00;;
29380;SDS011;16364;52.490;13.326;2023-05-16T14:28:22;2.57;;;1.40;;
29380;SDS011;16364;52.490;13.326;2023-05-16T14:30:48;2.93;;;1.20;;
29380;SDS011;16364;52.490;13.326;2023-05-16T14:33:13;2.40;;;1.30;;